sensor_id;sensor_type;location;lat;lon;timestamp;pressure;altitude;pressure_sealevel;temperature;humidity
51293;BME280;37377;45.186;9.778;2024-01-30T07:48:00;103350;;;2.9;75.2
51293;BME280;37377;45.186;9.778;2024-01-30T07:49:00;103350;;;2.7;75.9
51293;BME280;37377;45.186;9.778;2024-01-30T07:50:00;103350;;;2.7;75.9
51293;BME280;37377;45.186;9.778;2024-01-30T07:51:00;103350;;;3.2;75.1
51293;BME280;37377;45.186;9.778;2024-01-30T07:52:00;103350;;;3.2;75.1
51293;BME280;37377;45.186;9.778;2024-01-30T07:53:00;103350;;;3.1;75.3
51293;BME280;37377;45.186;9.778;2024-01-30T07:54:00;103350;;;3.1;75.3
51293;BME280;37377;45.186;9.778;2024-01-30T07:55:00;103350;;;2.7;76.5
51293;BME280;37377;45.186;9.778;2024-01-30T07:56:00;103350;;;2.7;76.5
51293;BME280;37377;45.186;9.778;2024-01-30T07:57:00;103350;;;2.8;77.5
51293;BME280;37377;45.186;9.778;2024-01-30T07:58:00;103350;;;2.8;77.5
51293;BME280;37377;45.186;9.778;2024-01-30T07:59:00;103360;;;2.7;76.0
51293;BME280;37377;45.186;9.778;2024-01-30T08:00:00;103360;;;2.7;76.0
51293;BME280;37377;45.186;9.778;2024-01-30T08:01:00;103350;;;2.6;76.8
51293;BME280;37377;45.186;9.778;2024-01-30T08:02:00;103350;;;2.6;76.8
51293;BME280;37377;45.186;9.778;2024-01-30T08:03:00;103350;;;2.5;76.9
51293;BME280;37377;45.186;9.778;2024-01-30T08:04:00;103350;;;2.5;76.9
51293;BME280;37377;45.186;9.778;2024-01-30T08:05:00;103350;;;2.7;76.0
51293;BME280;37377;45.186;9.778;2024-01-30T08:06:00;103350;;;2.7;76.0
51293;BME280;37377;45.186;9.778;2024-01-30T08:07:00;103360;;;3.1;74.2
51293;BME280;37377;45.186;9.778;2024-01-30T08:08:00;103360;;;3.1;74.2
51293;BME280;37377;45.186;9.778;2024-01-30T08:09:00;103360;;;3.0;75.3
51293;BME280;37377;45.186;9.778;2024-01-30T08:10:00;103360;;;3.0;75.3
51293;BME280;37377;45.186;9.778;2024-01-30T08:11:00;103360;;;3.4;74.3
51293;BME280;37377;45.186;9.778;2024-01-30T08:12:00;103360;;;3.4;74.3
51293;BME280;37377;45.186;9.778;2024-01-30T08:13:00;103360;;;3.1;73.8
51293;BME280;37377;45.186;9.778;2024-01-30T08:14:00;103360;;;3.1;73.8
51293;BME280;37377;45.186;9.778;2024-01-30T08:15:00;103350;;;2.8;74.6
51293;BME280;37377;45.186;9.778;2024-01-30T08:16:00;103350;;;2.8;74.6
51293;BME280;37377;45.186;9.778;2024-01-30T08:17:00;103350;;;2.8;75.0
51293;BME280;37377;45.186;9.778;2024-01-30T08:18:00;103350;;;2.8;75.0
51293;BME280;37377;45.186;9.778;2024-01-30T08:19:00;103360;;;3.2;74.6
51293;BME280;37377;45.186;9.778;2024-01-30T08:20:00;103360;;;3.2;74.6
51293;BME280;37377;45.186;9.778;2024-01-30T08:21:00;103360;;;2.9;75.7
51293;BME280;37377;45.186;9.778;2024-01-30T08:22:00;103360;;;2.9;75.7
51293;BME280;37377;45.186;9.778;2024-01-30T08:23:00;103360;;;3.1;74.4
51293;BME280;37377;45.186;9.778;2024-01-30T08:24:00;103360;;;3.1;74.4
51293;BME280;37377;45.186;9.778;2024-01-30T08:25:00;103360;;;3.1;75.2
51293;BME280;37377;45.186;9.778;2024-01-30T08:26:00;103360;;;3.1;75.2
51293;BME280;37377;45.186;9.778;2024-01-30T08:27:00;103360;;;3.4;73.5
51293;BME280;37377;45.186;9.778;2024-01-30T08:28:00;103360;;;3.4;73.5
51293;BME280;37377;45.186;9.778;2024-01-30T08:29:00;103370;;;3.2;74.1
51293;BME280;37377;45.186;9.778;2024-01-30T08:30:00;103370;;;3.2;74.1
51293;BME280;37377;45.186;9.778;2024-01-30T08:31:00;103370;;;3.2;73.8
51293;BME280;37377;45.186;9.778;2024-01-30T08:32:00;103370;;;3.2;73.8
51293;BME280;37377;45.186;9.778;2024-01-30T08:33:00;103360;;;3.5;73.6
51293;BME280;37377;45.186;9.778;2024-01-30T08:34:00;103360;;;3.5;73.6
51293;BME280;37377;45.186;9.778;2024-01-30T08:35:00;103360;;;3.5;72.8
51293;BME280;37377;45.186;9.778;2024-01-30T08:36:00;103360;;;3.5;72.8
51293;BME280;37377;45.186;9.778;2024-01-30T08:37:00;103360;;;3.4;72.9
51293;BME280;37377;45.186;9.778;2024-01-30T08:38:00;103360;;;3.4;72.9
51293;BME280;37377;45.186;9.778;2024-01-30T08:39:00;103360;;;3.2;73.4
51293;BME280;37377;45.186;9.778;2024-01-30T08:40:00;103360;;;3.2;73.4
51293;BME280;37377;45.186;9.778;2024-01-30T08:41:00;103360;;;3.2;74.4
51293;BME280;37377;45.186;9.778;2024-01-30T08:42:00;103360;;;3.2;74.4
51293;BME280;37377;45.186;9.778;2024-01-30T08:43:00;103360;;;3.4;73.2
51293;BME280;37377;45.186;9.778;2024-01-30T08:44:00;103360;;;3.4;73.2
51293;BME280;37377;45.186;9.778;2024-01-30T08:45:00;103370;;;3.6;73.7
51293;BME280;37377;45.186;9.778;2024-01-30T08:46:00;103370;;;3.6;73.7
51293;BME280;37377;45.186;9.778;2024-01-30T08:47:00;103370;;;3.5;73.5
51293;BME280;37377;45.186;9.778;2024-01-30T08:48:00;103370;;;3.5;73.5
51293;BME280;37377;45.186;9.778;2024-01-30T08:49:00;103370;;;3.1;74.5
51293;BME280;37377;45.186;9.778;2024-01-30T08:50:00;103370;;;3.1;74.5
51293;BME280;37377;45.186;9.778;2024-01-30T08:51:00;103370;;;3.4;73.6
51293;BME280;37377;45.186;9.778;2024-01-30T08:52:00;103370;;;3.4;73.6
51293;BME280;37377;45.186;9.778;2024-01-30T08:53:00;103370;;;3.8;72.8
51293;BME280;37377;45.186;9.778;2024-01-30T08:54:00;103370;;;3.8;72.8
51293;BME280;37377;45.186;9.778;2024-01-30T08:55:00;103380;;;3.7;74.3
51293;BME280;37377;45.186;9.778;2024-01-30T08:56:00;103380;;;3.7;74.3
51293;BME280;37377;45.186;9.778;2024-01-30T08:57:00;103380;;;3.8;73.6
51293;BME280;37377;45.186;9.778;2024-01-30T08:58:00;103380;;;3.8;73.6
51293;BME280;37377;45.186;9.778;2024-01-30T08:59:00;103370;;;3.5;74.5
51293;BME280;37377;45.186;9.778;2024-01-30T09:00:00;103370;;;3.5;74.5
51293;BME280;37377;45.186;9.778;2024-01-30T09:01:00;103370;;;3.8;73.2
51293;BME280;37377;45.186;9.778;2024-01-30T09:02:00;103370;;;3.8;73.2
51293;BME280;37377;45.186;9.778;2024-01-30T09:03:00;103370;;;3.6;72.4
51293;BME280;37377;45.186;9.778;2024-01-30T09:04:00;103370;;;3.6;72.4
51293;BME280;37377;45.186;9.778;2024-01-30T09:05:00;103380;;;3.7;73.5
51293;BME280;37377;45.186;9.778;2024-01-30T09:06:00;103380;;;3.7;73.5
51293;BME280;37377;45.186;9.778;2024-01-30T09:07:00;103380;;;3.5;74.0
51293;BME280;37377;45.186;9.778;2024-01-30T09:08:00;103380;;;3.5;74.0
51293;BME280;37377;45.186;9.778;2024-01-30T09:09:00;103390;;;3.6;73.7
51293;BME280;37377;45.186;9.778;2024-01-30T09:10:00;103390;;;3.6;73.7
51293;BME280;37377;45.186;9.778;2024-01-30T09:11:00;103390;;;3.8;73.4
51293;BME280;37377;45.186;9.778;2024-01-30T09:12:00;103390;;;3.8;73.4
51293;BME280;37377;45.186;9.778;2024-01-30T09:13:00;103390;;;3.4;74.8
51293;BME280;37377;45.186;9.778;2024-01-30T09:14:00;103390;;;3.4;74.8
51293;BME280;37377;45.186;9.778;2024-01-30T09:15:00;103390;;;3.7;73.4
51293;BME280;37377;45.186;9.778;2024-01-30T09:16:00;103390;;;3.7;73.4
51293;BME280;37377;45.186;9.778;2024-01-30T09:17:00;103390;;;3.5;74.2
51293;BME280;37377;45.186;9.778;2024-01-30T09:18:00;103390;;;3.5;74.2
51293;BME280;37377;45.186;9.778;2024-01-30T09:19:00;103390;;;4.0;73.3
51293;BME280;37377;45.186;9.778;2024-01-30T09:20:00;103390;;;4.0;73.3
51293;BME280;37377;45.186;9.778;2024-01-30T09:21:00;103390;;;4.0;73.2
51293;BME280;37377;45.186;9.778;2024-01-30T09:22:00;103390;;;4.0;73.2
51293;BME280;37377;45.186;9.778;2024-01-30T09:23:00;103390;;;4.1;72.7
51293;BME280;37377;45.186;9.778;2024-01-30T09:24:03;103390;;;4.1;72.7
51293;BME280;37377;45.186;9.778;2024-01-30T09:25:00;103390;;;3.6;74.6
51293;BME280;37377;45.186;9.778;2024-01-30T09:26:00;103390;;;3.6;74.6
51293;BME280;37377;45.186;9.778;2024-01-30T09:27:00;103390;;;4.2;73.5
51293;BME280;37377;45.186;9.778;2024-01-30T09:28:00;103390;;;4.2;73.5
51293;BME280;37377;45.186;9.778;2024-01-30T09:29:00;103390;;;4.5;73.2
51293;BME280;37377;45.186;9.778;2024-01-30T09:30:00;103390;;;4.5;73.2
51293;BME280;37377;45.186;9.778;2024-01-30T09:31:00;103390;;;4.5;71.5
51293;BME280;37377;45.186;9.778;2024-01-30T09:32:00;103390;;;4.5;71.5
51293;BME280;37377;45.186;9.778;2024-01-30T09:33:00;103390;;;4.3;71.7
51293;BME280;37377;45.186;9.778;2024-01-30T09:34:00;103390;;;4.3;71.7
51293;BME280;37377;45.186;9.778;2024-01-30T09:35:00;103390;;;4.5;71.3
51293;BME280;37377;45.186;9.778;2024-01-30T09:36:00;103390;;;4.5;71.3
51293;BME280;37377;45.186;9.778;2024-01-30T09:37:00;103390;;;4.3;72.3
51293;BME280;37377;45.186;9.778;2024-01-30T09:38:00;103390;;;4.3;72.3
51293;BME280;37377;45.186;9.778;2024-01-30T09:39:00;103390;;;4.4;72.2
51293;BME280;37377;45.186;9.778;2024-01-30T09:40:00;103390;;;4.4;72.2
51293;BME280;37377;45.186;9.778;2024-01-30T09:41:01;103390;;;4.1;72.3
51293;BME280;37377;45.186;9.778;2024-01-30T09:42:18;103390;;;4.1;72.3
51293;BME280;37377;45.186;9.778;2024-01-30T09:43:00;103390;;;4.5;75.3
51293;BME280;37377;45.186;9.778;2024-01-30T09:44:00;103390;;;4.5;75.3
51293;BME280;37377;45.186;9.778;2024-01-30T09:45:00;103400;;;4.6;72.5
51293;BME280;37377;45.186;9.778;2024-01-30T09:46:00;103400;;;4.6;72.5
51293;BME280;37377;45.186;9.778;2024-01-30T09:47:00;103390;;;4.7;71.2
51293;BME280;37377;45.186;9.778;2024-01-30T09:48:00;103390;;;4.7;71.2
51293;BME280;37377;45.186;9.778;2024-01-30T09:49:00;103400;;;4.4;72.8
51293;BME280;37377;45.186;9.778;2024-01-30T09:50:00;103400;;;4.4;72.8
51293;BME280;37377;45.186;9.778;2024-01-30T09:51:00;103400;;;4.8;71.7
51293;BME280;37377;45.186;9.778;2024-01-30T09:52:00;103400;;;4.8;71.7
51293;BME280;37377;45.186;9.778;2024-01-30T09:53:00;103400;;;4.7;71.9
51293;BME280;37377;45.186;9.778;2024-01-30T09:54:00;103400;;;4.7;71.9
51293;BME280;37377;45.186;9.778;2024-01-30T09:55:00;103400;;;4.4;72.5
51293;BME280;37377;45.186;9.778;2024-01-30T09:56:00;103400;;;4.4;72.5
51293;BME280;37377;45.186;9.778;2024-01-30T09:57:00;103400;;;5.0;72.9
51293;BME280;37377;45.186;9.778;2024-01-30T09:58:00;103400;;;5.0;72.9
51293;BME280;37377;45.186;9.778;2024-01-30T09:59:00;103400;;;5.0;72.1
51293;BME280;37377;45.186;9.778;2024-01-30T10:00:00;103400;;;5.0;72.1
51293;BME280;37377;45.186;9.778;2024-01-30T10:01:00;103390;;;5.1;70.6
51293;BME280;37377;45.186;9.778;2024-01-30T10:02:00;103390;;;5.1;70.6
51293;BME280;37377;45.186;9.778;2024-01-30T10:03:00;103400;;;5.5;72.0
51293;BME280;37377;45.186;9.778;2024-01-30T10:04:00;103400;;;5.5;72.0
51293;BME280;37377;45.186;9.778;2024-01-30T10:05:00;103400;;;5.3;73.7
51293;BME280;37377;45.186;9.778;2024-01-30T10:06:00;103400;;;5.3;73.7
51293;BME280;37377;45.186;9.778;2024-01-30T10:07:01;103400;;;5.6;71.4
51293;BME280;37377;45.186;9.778;2024-01-30T10:08:00;103400;;;5.6;71.4
51293;BME280;37377;45.186;9.778;2024-01-30T10:09:00;103390;;;5.5;70.2
51293;BME280;37377;45.186;9.778;2024-01-30T10:10:00;103390;;;5.5;70.2
51293;BME280;37377;45.186;9.778;2024-01-30T10:11:00;103400;;;5.8;69.3
51293;BME280;37377;45.186;9.778;2024-01-30T10:12:00;103400;;;5.8;69.3
51293;BME280;37377;45.186;9.778;2024-01-30T10:13:00;103390;;;4.9;71.5
51293;BME280;37377;45.186;9.778;2024-01-30T10:14:00;103390;;;4.9;71.5
51293;BME280;37377;45.186;9.778;2024-01-30T10:15:00;103400;;;5.5;71.6
51293;BME280;37377;45.186;9.778;2024-01-30T10:16:00;103400;;;5.5;71.6
51293;BME280;37377;45.186;9.778;2024-01-30T10:17:00;103400;;;5.6;70.3
51293;BME280;37377;45.186;9.778;2024-01-30T10:18:00;103400;;;5.6;70.3
51293;BME280;37377;45.186;9.778;2024-01-30T10:19:00;103390;;;5.5;69.9
51293;BME280;37377;45.186;9.778;2024-01-30T10:20:00;103390;;;5.5;69.9
51293;BME280;37377;45.186;9.778;2024-01-30T10:21:00;103390;;;5.5;69.9
51293;BME280;37377;45.186;9.778;2024-01-30T10:22:00;103390;;;5.5;69.9
51293;BME280;37377;45.186;9.778;2024-01-30T10:23:00;103390;;;6.1;68.4
51293;BME280;37377;45.186;9.778;2024-01-30T10:24:00;103390;;;6.1;68.4
51293;BME280;37377;45.186;9.778;2024-01-30T10:25:00;103380;;;5.8;69.9
51293;BME280;37377;45.186;9.778;2024-01-30T10:26:00;103380;;;5.8;69.9
51293;BME280;37377;45.186;9.778;2024-01-30T10:27:00;103380;;;6.2;68.5
51293;BME280;37377;45.186;9.778;2024-01-30T10:28:00;103380;;;6.2;68.5
51293;BME280;37377;45.186;9.778;2024-01-30T10:29:00;103380;;;6.0;69.5
51293;BME280;37377;45.186;9.778;2024-01-30T10:30:00;103380;;;6.0;69.5
51293;BME280;37377;45.186;9.778;2024-01-30T10:31:00;103380;;;5.8;71.1
51293;BME280;37377;45.186;9.778;2024-01-30T10:32:00;103380;;;5.8;71.1
51293;BME280;37377;45.186;9.778;2024-01-30T10:33:00;103380;;;6.2;68.2
51293;BME280;37377;45.186;9.778;2024-01-30T10:34:00;103380;;;6.2;68.2
51293;BME280;37377;45.186;9.778;2024-01-30T10:35:00;103380;;;6.0;70.3
51293;BME280;37377;45.186;9.778;2024-01-30T10:36:00;103380;;;6.0;70.3
51293;BME280;37377;45.186;9.778;2024-01-30T10:37:05;103380;;;5.9;69.6
51293;BME280;37377;45.186;9.778;2024-01-30T10:38:00;103380;;;5.9;69.6
51293;BME280;37377;45.186;9.778;2024-01-30T10:39:00;103380;;;5.9;69.3
51293;BME280;37377;45.186;9.778;2024-01-30T10:40:02;103380;;;5.9;69.3
51293;BME280;37377;45.186;9.778;2024-01-30T10:41:00;103370;;;5.5;71.2
51293;BME280;37377;45.186;9.778;2024-01-30T10:42:02;103370;;;5.5;71.2
51293;BME280;37377;45.186;9.778;2024-01-30T10:43:00;103370;;;5.5;72.3
51293;BME280;37377;45.186;9.778;2024-01-30T10:44:02;103370;;;5.5;72.3
51293;BME280;37377;45.186;9.778;2024-01-30T10:45:02;103370;;;5.6;73.1
51293;BME280;37377;45.186;9.778;2024-01-30T10:47:00;103370;;;6.3;70.5
51293;BME280;37377;45.186;9.778;2024-01-30T10:48:00;103370;;;6.3;70.5
51293;BME280;37377;45.186;9.778;2024-01-30T10:49:00;103360;;;6.1;70.1
51293;BME280;37377;45.186;9.778;2024-01-30T10:50:00;103360;;;6.1;70.1
51293;BME280;37377;45.186;9.778;2024-01-30T10:51:00;103360;;;6.2;69.4
51293;BME280;37377;45.186;9.778;2024-01-30T10:52:00;103360;;;6.2;69.4
51293;BME280;37377;45.186;9.778;2024-01-30T10:53:00;103360;;;6.0;70.4
51293;BME280;37377;45.186;9.778;2024-01-30T10:54:00;103360;;;6.0;70.4
51293;BME280;37377;45.186;9.778;2024-01-30T10:55:00;103360;;;6.0;71.1
51293;BME280;37377;45.186;9.778;2024-01-30T10:56:00;103360;;;6.0;71.1
51293;BME280;37377;45.186;9.778;2024-01-30T10:57:00;103360;;;6.4;70.0
51293;BME280;37377;45.186;9.778;2024-01-30T10:58:00;103360;;;6.4;70.0
51293;BME280;37377;45.186;9.778;2024-01-30T10:59:00;103360;;;5.8;70.9
51293;BME280;37377;45.186;9.778;2024-01-30T11:00:00;103360;;;5.8;70.9
51293;BME280;37377;45.186;9.778;2024-01-30T11:01:00;103360;;;6.4;69.6
51293;BME280;37377;45.186;9.778;2024-01-30T11:02:00;103360;;;6.4;69.6
51293;BME280;37377;45.186;9.778;2024-01-30T11:03:00;103360;;;6.3;70.0
51293;BME280;37377;45.186;9.778;2024-01-30T11:04:00;103360;;;6.3;70.0
51293;BME280;37377;45.186;9.778;2024-01-30T11:05:00;103360;;;6.3;71.3
51293;BME280;37377;45.186;9.778;2024-01-30T11:06:00;103360;;;6.3;71.3
51293;BME280;37377;45.186;9.778;2024-01-30T11:07:00;103350;;;5.3;72.9
51293;BME280;37377;45.186;9.778;2024-01-30T11:08:10;103350;;;5.3;72.9
51293;BME280;37377;45.186;9.778;2024-01-30T11:09:00;103360;;;6.7;71.5
51293;BME280;37377;45.186;9.778;2024-01-30T11:10:00;103360;;;6.7;71.5
51293;BME280;37377;45.186;9.778;2024-01-30T11:11:00;103360;;;6.6;69.2
51293;BME280;37377;45.186;9.778;2024-01-30T11:12:00;103360;;;6.6;69.2
51293;BME280;37377;45.186;9.778;2024-01-30T11:13:00;103350;;;6.1;71.7
51293;BME280;37377;45.186;9.778;2024-01-30T11:14:00;103350;;;6.1;71.7
51293;BME280;37377;45.186;9.778;2024-01-30T11:15:03;103350;;;6.5;71.4
51293;BME280;37377;45.186;9.778;2024-01-30T11:16:00;103350;;;6.5;71.4
51293;BME280;37377;45.186;9.778;2024-01-30T11:17:00;103340;;;6.7;68.8
51293;BME280;37377;45.186;9.778;2024-01-30T11:18:00;103340;;;6.7;68.8
51293;BME280;37377;45.186;9.778;2024-01-30T11:19:00;103340;;;6.3;69.2
51293;BME280;37377;45.186;9.778;2024-01-30T11:20:00;103340;;;6.3;69.2
51293;BME280;37377;45.186;9.778;2024-01-30T11:21:00;103330;;;6.5;69.2
51293;BME280;37377;45.186;9.778;2024-01-30T11:22:00;103330;;;6.5;69.2
51293;BME280;37377;45.186;9.778;2024-01-30T11:23:00;103330;;;6.1;70.6
51293;BME280;37377;45.186;9.778;2024-01-30T11:24:00;103330;;;6.1;70.6
51293;BME280;37377;45.186;9.778;2024-01-30T11:25:00;103330;;;6.6;68.2
51293;BME280;37377;45.186;9.778;2024-01-30T11:26:00;103330;;;6.6;68.2
51293;BME280;37377;45.186;9.778;2024-01-30T11:27:00;103320;;;6.5;69.8
51293;BME280;37377;45.186;9.778;2024-01-30T11:28:00;103320;;;6.5;69.8
51293;BME280;37377;45.186;9.778;2024-01-30T11:29:03;103330;;;6.3;70.4
51293;BME280;37377;45.186;9.778;2024-01-30T11:30:01;103330;;;6.3;70.4
51293;BME280;37377;45.186;9.778;2024-01-30T11:31:03;103320;;;6.6;69.5
51293;BME280;37377;45.186;9.778;2024-01-30T11:32:00;103320;;;6.6;69.5
51293;BME280;37377;45.186;9.778;2024-01-30T11:33:00;103320;;;6.3;71.1
51293;BME280;37377;45.186;9.778;2024-01-30T11:34:00;103320;;;6.3;71.1
51293;BME280;37377;45.186;9.778;2024-01-30T11:35:00;103320;;;6.4;72.7
51293;BME280;37377;45.186;9.778;2024-01-30T11:36:00;103320;;;6.4;72.7
51293;BME280;37377;45.186;9.778;2024-01-30T11:37:03;103320;;;6.9;69.9
51293;BME280;37377;45.186;9.778;2024-01-30T11:38:00;103320;;;6.9;69.9
51293;BME280;37377;45.186;9.778;2024-01-30T11:39:00;103310;;;7.0;71.1
51293;BME280;37377;45.186;9.778;2024-01-30T11:40:00;103310;;;7.0;71.1
51293;BME280;37377;45.186;9.778;2024-01-30T11:41:00;103300;;;6.8;70.8
51293;BME280;37377;45.186;9.778;2024-01-30T11:42:00;103300;;;6.8;70.8
51293;BME280;37377;45.186;9.778;2024-01-30T11:43:00;103300;;;7.2;68.1
51293;BME280;37377;45.186;9.778;2024-01-30T11:44:00;103300;;;7.2;68.1
51293;BME280;37377;45.186;9.778;2024-01-30T11:45:00;103300;;;6.6;71.3
51293;BME280;37377;45.186;9.778;2024-01-30T11:46:00;103300;;;6.6;71.3
51293;BME280;37377;45.186;9.778;2024-01-30T11:47:00;103290;;;6.2;71.8
51293;BME280;37377;45.186;9.778;2024-01-30T11:48:00;103290;;;6.2;71.8
51293;BME280;37377;45.186;9.778;2024-01-30T11:49:00;103290;;;6.8;70.7
51293;BME280;37377;45.186;9.778;2024-01-30T11:50:00;103290;;;6.8;70.7
51293;BME280;37377;45.186;9.778;2024-01-30T11:51:00;103280;;;6.8;70.8
51293;BME280;37377;45.186;9.778;2024-01-30T11:52:00;103280;;;6.8;70.8
51293;BME280;37377;45.186;9.778;2024-01-30T11:53:00;103280;;;7.2;68.6
51293;BME280;37377;45.186;9.778;2024-01-30T11:54:00;103280;;;7.2;68.6
51293;BME280;37377;45.186;9.778;2024-01-30T11:55:00;103280;;;7.2;68.4
51293;BME280;37377;45.186;9.778;2024-01-30T11:56:00;103280;;;7.2;68.4
51293;BME280;37377;45.186;9.778;2024-01-30T11:57:00;103270;;;6.8;68.9
51293;BME280;37377;45.186;9.778;2024-01-30T11:58:00;103270;;;6.8;68.9
51293;BME280;37377;45.186;9.778;2024-01-30T11:59:00;103270;;;6.2;71.8
51293;BME280;37377;45.186;9.778;2024-01-30T12:00:00;103270;;;6.2;71.8
51293;BME280;37377;45.186;9.778;2024-01-30T12:01:00;103270;;;6.9;70.4
51293;BME280;37377;45.186;9.778;2024-01-30T12:02:00;103270;;;6.9;70.4
51293;BME280;37377;45.186;9.778;2024-01-30T12:03:00;103270;;;7.5;67.8
51293;BME280;37377;45.186;9.778;2024-01-30T12:04:00;103270;;;7.5;67.8
51293;BME280;37377;45.186;9.778;2024-01-30T12:05:03;103260;;;7.2;67.7
51293;BME280;37377;45.186;9.778;2024-01-30T12:06:00;103260;;;7.2;67.7
51293;BME280;37377;45.186;9.778;2024-01-30T12:07:00;103260;;;7.2;69.5
51293;BME280;37377;45.186;9.778;2024-01-30T12:08:00;103260;;;7.2;69.5
51293;BME280;37377;45.186;9.778;2024-01-30T12:09:00;103260;;;7.2;69.5
51293;BME280;37377;45.186;9.778;2024-01-30T12:10:00;103260;;;7.2;69.5
51293;BME280;37377;45.186;9.778;2024-01-30T12:11:00;103250;;;6.9;69.0
51293;BME280;37377;45.186;9.778;2024-01-30T12:12:00;103250;;;6.9;69.0
51293;BME280;37377;45.186;9.778;2024-01-30T12:13:00;103250;;;7.1;69.8
51293;BME280;37377;45.186;9.778;2024-01-30T12:14:00;103250;;;7.1;69.8
51293;BME280;37377;45.186;9.778;2024-01-30T12:15:00;103250;;;7.3;69.2
51293;BME280;37377;45.186;9.778;2024-01-30T12:16:00;103250;;;7.3;69.2
51293;BME280;37377;45.186;9.778;2024-01-30T12:19:00;103240;;;7.1;68.3
51293;BME280;37377;45.186;9.778;2024-01-30T12:23:00;103240;;;7.2;68.4
51293;BME280;37377;45.186;9.778;2024-01-30T12:24:00;103240;;;6.8;69.8
51293;BME280;37377;45.186;9.778;2024-01-30T12:25:00;103230;;;7.3;69.5
51293;BME280;37377;45.186;9.778;2024-01-30T12:26:00;103230;;;7.3;69.5
51293;BME280;37377;45.186;9.778;2024-01-30T12:27:00;103230;;;7.5;68.7
51293;BME280;37377;45.186;9.778;2024-01-30T12:28:00;103230;;;7.5;68.7
51293;BME280;37377;45.186;9.778;2024-01-30T13:17:00;103160;;;8.1;67.5
51293;BME280;37377;45.186;9.778;2024-01-30T13:18:00;103160;;;7.6;69.2
51293;BME280;37377;45.186;9.778;2024-01-30T13:19:00;103160;;;7.6;69.2
51293;BME280;37377;45.186;9.778;2024-01-30T13:20:00;103170;;;7.4;69.6
51293;BME280;37377;45.186;9.778;2024-01-30T13:21:00;103170;;;7.4;69.6
51293;BME280;37377;45.186;9.778;2024-01-30T13:22:00;103160;;;7.3;70.4
51293;BME280;37377;45.186;9.778;2024-01-30T13:23:00;103160;;;7.3;70.4
51293;BME280;37377;45.186;9.778;2024-01-30T13:24:00;103160;;;7.3;70.4
51293;BME280;37377;45.186;9.778;2024-01-30T13:26:00;103160;;;7.2;71.4
51293;BME280;37377;45.186;9.778;2024-01-30T13:28:00;103160;;;7.0;71.6
51293;BME280;37377;45.186;9.778;2024-01-30T13:29:00;103160;;;7.0;71.6
51293;BME280;37377;45.186;9.778;2024-01-30T13:30:00;103160;;;7.2;70.7
51293;BME280;37377;45.186;9.778;2024-01-30T13:31:00;103160;;;7.2;70.7
51293;BME280;37377;45.186;9.778;2024-01-30T13:32:00;103160;;;7.2;70.7
51293;BME280;37377;45.186;9.778;2024-01-30T13:34:00;103160;;;7.3;70.5
51293;BME280;37377;45.186;9.778;2024-01-30T13:35:00;103160;;;7.3;70.4
51293;BME280;37377;45.186;9.778;2024-01-30T13:36:00;103160;;;7.3;70.4
51293;BME280;37377;45.186;9.778;2024-01-30T13:37:00;103160;;;7.2;71.1
51293;BME280;37377;45.186;9.778;2024-01-30T13:38:00;103160;;;7.4;70.5
51293;BME280;37377;45.186;9.778;2024-01-30T13:39:00;103160;;;7.4;70.5
51293;BME280;37377;45.186;9.778;2024-01-30T13:40:00;103150;;;7.3;71.1
51293;BME280;37377;45.186;9.778;2024-01-30T13:41:00;103150;;;7.3;71.1
51293;BME280;37377;45.186;9.778;2024-01-30T13:42:00;103150;;;7.3;71.1
51293;BME280;37377;45.186;9.778;2024-01-30T13:43:00;103150;;;7.1;71.8
51293;BME280;37377;45.186;9.778;2024-01-30T13:44:00;103150;;;7.3;71.4
51293;BME280;37377;45.186;9.778;2024-01-30T13:45:00;103150;;;7.3;71.4
51293;BME280;37377;45.186;9.778;2024-01-30T13:46:00;103140;;;7.4;71.3
51293;BME280;37377;45.186;9.778;2024-01-30T13:47:00;103140;;;7.4;71.3
51293;BME280;37377;45.186;9.778;2024-01-30T13:48:00;103140;;;7.4;71.3
51293;BME280;37377;45.186;9.778;2024-01-30T13:53:00;103140;;;7.6;71.0
51293;BME280;37377;45.186;9.778;2024-01-30T13:54:00;103140;;;7.6;71.6
51293;BME280;37377;45.186;9.778;2024-01-30T13:55:00;103140;;;7.6;71.6
51293;BME280;37377;45.186;9.778;2024-01-30T13:56:00;103140;;;7.2;72.6
51293;BME280;37377;45.186;9.778;2024-01-30T13:57:00;103140;;;7.2;72.6
51293;BME280;37377;45.186;9.778;2024-01-30T13:58:00;103140;;;7.5;71.8
51293;BME280;37377;45.186;9.778;2024-01-30T13:59:00;103140;;;7.5;71.8
51293;BME280;37377;45.186;9.778;2024-01-30T14:00:00;103140;;;7.6;71.6
51293;BME280;37377;45.186;9.778;2024-01-30T14:01:00;103140;;;7.6;71.6
51293;BME280;37377;45.186;9.778;2024-01-30T14:02:00;103130;;;7.6;72.1
51293;BME280;37377;45.186;9.778;2024-01-30T14:03:00;103130;;;7.6;72.1
51293;BME280;37377;45.186;9.778;2024-01-30T14:04:00;103140;;;7.8;71.3
51293;BME280;37377;45.186;9.778;2024-01-30T14:05:00;103140;;;7.8;71.3
51293;BME280;37377;45.186;9.778;2024-01-30T14:06:00;103140;;;7.8;71.3
51293;BME280;37377;45.186;9.778;2024-01-30T14:07:00;103140;;;7.8;71.3
51293;BME280;37377;45.186;9.778;2024-01-30T14:08:00;103140;;;7.8;72.0
51293;BME280;37377;45.186;9.778;2024-01-30T14:09:00;103140;;;7.8;72.0
51293;BME280;37377;45.186;9.778;2024-01-30T14:10:00;103130;;;8.0;70.6
51293;BME280;37377;45.186;9.778;2024-01-30T14:11:00;103130;;;8.0;70.6
51293;BME280;37377;45.186;9.778;2024-01-30T14:12:00;103130;;;8.1;70.3
51293;BME280;37377;45.186;9.778;2024-01-30T14:13:00;103130;;;8.1;70.3
51293;BME280;37377;45.186;9.778;2024-01-30T14:14:00;103130;;;7.8;70.4
51293;BME280;37377;45.186;9.778;2024-01-30T14:15:00;103130;;;7.8;70.4
51293;BME280;37377;45.186;9.778;2024-01-30T14:16:00;103130;;;8.1;69.7
51293;BME280;37377;45.186;9.778;2024-01-30T14:17:00;103130;;;8.1;69.7
51293;BME280;37377;45.186;9.778;2024-01-30T14:18:00;103130;;;8.2;69.4
51293;BME280;37377;45.186;9.778;2024-01-30T14:19:00;103130;;;8.2;69.4
51293;BME280;37377;45.186;9.778;2024-01-30T14:20:00;103130;;;8.2;69.2
51293;BME280;37377;45.186;9.778;2024-01-30T14:21:00;103130;;;8.2;69.2
51293;BME280;37377;45.186;9.778;2024-01-30T14:22:00;103130;;;8.2;69.2
51293;BME280;37377;45.186;9.778;2024-01-30T14:23:00;103130;;;8.2;69.2
51293;BME280;37377;45.186;9.778;2024-01-30T14:24:00;103120;;;8.0;69.3
51293;BME280;37377;45.186;9.778;2024-01-30T14:25:00;103120;;;8.0;69.3
51293;BME280;37377;45.186;9.778;2024-01-30T14:26:00;103130;;;8.2;70.1
51293;BME280;37377;45.186;9.778;2024-01-30T14:27:00;103130;;;8.2;70.1
51293;BME280;37377;45.186;9.778;2024-01-30T14:28:00;103130;;;8.4;69.1
51293;BME280;37377;45.186;9.778;2024-01-30T14:29:00;103130;;;8.4;69.1